createdAt,value
2019-04-03T00:00:08.036Z,14.65
2019-04-03T00:10:10.635Z,12.68
2019-04-03T00:20:12.672Z,13.55
2019-04-03T00:30:14.747Z,14.23
2019-04-03T00:40:17.513Z,12.53
2019-04-03T00:50:19.771Z,11.15
2019-04-03T01:00:21.911Z,7.37
2019-04-03T01:10:24.976Z,8.67
2019-04-03T01:30:29.366Z,7.42
2019-04-03T01:40:31.807Z,6.97
2019-04-03T01:50:34.256Z,6.07
2019-04-03T02:00:38.177Z,5.90
2019-04-03T02:10:41.286Z,3.90
2019-04-03T02:30:46.371Z,2.15
2019-04-03T02:40:48.790Z,2.20
2019-04-03T02:50:51.178Z,2.13
2019-04-03T03:00:53.508Z,2.47
2019-04-03T03:10:56.432Z,2.50
2019-04-03T03:20:59.948Z,2.50
2019-04-03T03:31:05.707Z,2.55
2019-04-03T03:41:06.183Z,2.02
2019-04-03T03:51:09.525Z,2.57
2019-04-03T04:01:11.408Z,2.55
2019-04-03T04:11:14.578Z,3.80
2019-04-03T04:21:16.910Z,3.00
2019-04-03T04:31:18.858Z,3.03
2019-04-03T04:41:21.968Z,3.45
2019-04-03T04:51:25.860Z,3.95
2019-04-03T05:01:28.121Z,4.00
2019-04-03T05:11:30.106Z,4.83
2019-04-03T05:21:32.534Z,4.95
2019-04-03T05:31:34.549Z,4.70
2019-04-03T05:41:37.222Z,5.85
2019-04-03T05:51:39.779Z,6.35
2019-04-03T06:01:45.974Z,6.60
2019-04-03T06:11:51.690Z,5.53
2019-04-03T06:21:51.451Z,6.47
2019-04-03T06:31:55.947Z,6.30
2019-04-03T06:41:58.230Z,4.78
2019-04-03T06:52:00.238Z,5.22
2019-04-03T07:02:05.301Z,5.72
2019-04-03T07:12:07.299Z,6.22
2019-04-03T07:22:09.199Z,5.65
2019-04-03T07:32:11.372Z,5.75
2019-04-03T07:42:14.067Z,5.87
2019-04-03T07:52:17.846Z,8.48
2019-04-03T08:02:20.733Z,7.92
2019-04-03T08:12:25.017Z,5.62
2019-04-03T08:22:27.038Z,5.37
2019-04-03T08:32:29.146Z,5.87
2019-04-03T08:42:32.643Z,5.40
2019-04-03T08:52:36.949Z,6.10
2019-04-03T09:02:38.896Z,7.35
2019-04-03T09:12:42.252Z,7.77
2019-04-03T09:22:44.562Z,6.95
2019-04-03T09:32:47.504Z,7.47
2019-04-03T09:42:51.260Z,6.25
2019-04-03T09:52:54.878Z,8.08
2019-04-03T10:02:57.651Z,7.70
2019-04-03T10:13:00.483Z,8.03
2019-04-03T10:23:03.206Z,9.40
2019-04-03T10:33:05.691Z,9.70
2019-04-03T10:43:07.668Z,12.37
2019-04-03T10:53:10.735Z,11.07
2019-04-03T11:03:13.005Z,10.23
2019-04-03T11:13:15.475Z,12.10
2019-04-03T11:23:21.724Z,10.50
2019-04-03T11:33:22.966Z,8.13
2019-04-03T11:43:26.847Z,8.15
2019-04-03T11:53:29.203Z,6.20
2019-04-03T12:03:31.547Z,5.75
2019-04-03T12:13:33.472Z,3.47
2019-04-03T12:23:35.856Z,3.17
2019-04-03T12:33:51.703Z,3.40
2019-04-03T12:43:44.923Z,2.98
2019-04-03T12:53:48.483Z,3.40
2019-04-03T13:03:52.119Z,3.25
2019-04-03T13:13:54.689Z,3.50
2019-04-03T13:23:58.641Z,3.33
2019-04-03T13:34:00.542Z,4.85
2019-04-03T13:44:02.665Z,3.27
2019-04-03T13:54:07.182Z,2.90
2019-04-03T14:04:09.419Z,3.52
2019-04-03T14:14:15.700Z,3.40
2019-04-03T14:24:17.150Z,4.30
2019-04-03T14:34:20.079Z,4.63
2019-04-03T14:54:25.778Z,5.42
2019-04-03T15:04:28.612Z,5.70
2019-04-03T15:14:32.446Z,4.30
2019-04-03T15:24:34.556Z,4.30
2019-04-03T15:34:36.611Z,4.10
2019-04-03T15:44:39.058Z,4.13
2019-04-03T15:54:41.069Z,3.33
2019-04-03T16:04:43.085Z,2.40
2019-04-03T16:14:45.583Z,4.17
2019-04-03T16:24:48.104Z,3.67
2019-04-03T16:34:50.960Z,4.37
2019-04-03T16:44:53.236Z,3.92
2019-04-03T16:54:55.488Z,21.93
2019-04-03T17:04:58.495Z,21.40
2019-04-03T17:25:04.580Z,3.77
2019-04-03T17:35:07.838Z,11.70
2019-04-03T17:45:11.234Z,4.50
2019-04-03T17:55:13.809Z,3.45
2019-04-03T18:05:18.099Z,3.83
2019-04-03T18:15:20.195Z,3.00
2019-04-03T18:25:22.399Z,3.37
2019-04-03T18:35:26.172Z,3.03
2019-04-03T18:45:28.535Z,3.33
2019-04-03T18:55:34.539Z,4.17
2019-04-03T19:05:35.882Z,3.55
2019-04-03T19:15:37.918Z,3.80
2019-04-03T19:25:41.427Z,4.22
2019-04-03T19:35:43.744Z,4.97
2019-04-03T19:45:46.210Z,6.17
2019-04-03T19:55:48.863Z,4.77
2019-04-03T20:05:51.865Z,2.80
2019-04-03T20:25:57.919Z,2.58
2019-04-03T20:36:02.240Z,2.95
2019-04-03T20:46:05.669Z,2.35
2019-04-03T20:56:08.578Z,2.90
2019-04-03T21:16:14.986Z,3.67
2019-04-03T21:26:20.105Z,4.05
2019-04-03T21:36:23.651Z,3.85
2019-04-03T21:46:27.058Z,6.55
2019-04-03T21:56:31.029Z,8.35
2019-04-03T22:06:33.553Z,9.13
2019-04-03T22:16:35.906Z,10.13
2019-04-03T22:26:38.860Z,8.60
2019-04-03T22:36:42.327Z,8.98
2019-04-03T22:46:45.019Z,10.80
2019-04-03T22:56:48.391Z,11.85
2019-04-03T23:06:51.572Z,9.90
2019-04-03T23:16:53.663Z,13.88
2019-04-03T23:26:56.250Z,15.27
2019-04-03T23:36:58.212Z,16.60
2019-04-03T23:47:01.125Z,14.63
